Time;durP1;ratioP1;P1;durP2;ratioP2;P2;SDS_P1;SDS_P2;PMS_P1;PMS_P2;Temp;Humidity;BMP_temperature;BMP_pressure;BME280_temperature;BME280_humidity;BME280_pressure;Samples;Min_cycle;Max_cycle;Signal;HPM_P1;HPM_P2
2022/12/24 00:00:01;;;;;;;11.77;6.97;;;5.10;88.20;;;;;;5082147;28;20171;-70
2022/12/24 00:02:31;;;;;;;12.67;8.10;;;5.10;88.60;;;;;;5081636;28;21022;-70
2022/12/24 00:05:06;;;;;;;13.70;8.90;;;5.10;88.90;;;;;;5082378;28;20209;-71
2022/12/24 00:07:40;;;;;;;16.90;8.10;;;5.10;88.20;;;;;;5080824;28;20577;-71
2022/12/24 00:10:11;;;;;;;14.43;7.67;;;5.00;87.70;;;;;;5081983;28;21028;-71
2022/12/24 00:12:42;;;;;;;15.20;8.60;;;5.00;87.40;;;;;;5082482;28;20214;-71
2022/12/24 00:15:15;;;;;;;16.13;8.83;;;5.00;87.60;;;;;;5081642;28;20231;-70
2022/12/24 00:17:49;;;;;;;20.10;9.23;;;5.00;87.70;;;;;;5081202;28;20182;-70
2022/12/24 00:20:23;;;;;;;25.20;10.00;;;5.00;87.30;;;;;;5080063;28;20178;-71
2022/12/24 00:22:54;;;;;;;16.87;8.63;;;5.00;87.20;;;;;;5080949;28;20189;-70
2022/12/24 00:25:24;;;;;;;25.00;9.50;;;5.00;86.80;;;;;;5077567;28;20221;-70
2022/12/24 00:27:54;;;;;;;15.03;9.10;;;4.90;86.70;;;;;;5081338;28;20178;-70
2022/12/24 00:30:24;;;;;;;16.67;8.07;;;4.90;86.70;;;;;;5080129;28;20231;-71
2022/12/24 00:32:54;;;;;;;15.70;8.57;;;5.00;87.20;;;;;;5081684;28;20205;-69
2022/12/24 00:35:28;;;;;;;18.87;8.20;;;4.90;86.90;;;;;;5079775;28;20186;-69
2022/12/24 00:37:58;;;;;;;13.93;8.43;;;4.90;86.80;;;;;;5081118;28;20186;-70
2022/12/24 00:40:29;;;;;;;16.83;8.97;;;4.90;87.40;;;;;;5080506;28;20208;-71
2022/12/24 00:43:09;;;;;;;;;;;;;;;;;;;;;
2022/12/24 00:45:43;;;;;;;19.63;7.87;;;4.90;87.00;;;;;;5080209;28;20616;-70
2022/12/24 00:48:13;;;;;;;10.73;7.77;;;4.80;87.30;;;;;;5079821;28;20592;-70
2022/12/24 00:50:43;;;;;;;12.97;9.03;;;4.80;87.00;;;;;;5078891;28;20190;-69
2022/12/24 00:53:13;;;;;;;16.10;8.57;;;4.80;86.50;;;;;;5081304;28;21515;-71
2022/12/24 00:55:46;;;;;;;8.00;7.13;;;4.80;86.70;;;;;;5081569;28;20259;-71
2022/12/24 00:58:17;;;;;;;12.47;8.23;;;4.80;87.10;;;;;;5081806;28;20565;-71
2022/12/24 01:00:47;;;;;;;14.70;7.47;;;4.80;87.00;;;;;;5076893;28;20231;-71
2022/12/24 01:03:17;;;;;;;18.77;8.20;;;4.70;87.00;;;;;;5080593;28;20225;-71
2022/12/24 01:05:48;;;;;;;13.90;8.90;;;4.70;87.10;;;;;;5080084;28;20209;-70
2022/12/24 01:08:18;;;;;;;17.73;7.50;;;4.70;87.10;;;;;;5081150;28;20288;-71
2022/12/24 01:10:48;;;;;;;11.17;7.53;;;4.70;87.00;;;;;;5080654;28;20178;-70
2022/12/24 01:13:19;;;;;;;18.23;8.30;;;4.60;86.70;;;;;;5079791;28;20214;-71
2022/12/24 01:15:49;;;;;;;23.03;9.13;;;4.60;86.60;;;;;;5080935;28;20193;-71
2022/12/24 01:18:19;;;;;;;21.17;8.87;;;4.60;86.50;;;;;;5081775;28;20189;-70
2022/12/24 01:21:00;;;;;;;12.30;7.30;;;4.60;86.70;;;;;;5081443;28;20186;-70
2022/12/24 01:23:36;;;;;;;23.07;10.77;;;4.60;86.90;;;;;;5081534;28;20182;-71
2022/12/24 01:26:10;;;;;;;17.30;9.83;;;4.50;86.70;;;;;;5081533;28;20265;-71
2022/12/24 01:28:41;;;;;;;17.27;10.60;;;4.50;86.80;;;;;;5081138;28;20267;-71
2022/12/24 01:31:32;;;;;;;33.17;12.20;;;4.50;86.80;;;;;;5079026;28;20178;-70
2022/12/24 01:34:06;;;;;;;15.80;10.63;;;4.40;86.60;;;;;;5081738;28;20221;-70
2022/12/24 01:36:37;;;;;;;17.30;10.80;;;4.40;86.60;;;;;;5082073;28;20567;-71
2022/12/24 01:39:07;;;;;;;27.53;13.37;;;4.40;86.70;;;;;;5081545;28;20212;-70
2022/12/24 01:44:34;;;;;;;31.77;15.50;;;4.40;87.00;;;;;;5079784;28;20197;-71
2022/12/24 01:47:09;;;;;;;34.97;17.37;;;4.30;86.70;;;;;;5082041;28;20204;-70
2022/12/24 01:49:43;;;;;;;29.43;15.87;;;4.20;86.80;;;;;;5082442;28;20675;-71
2022/12/24 01:52:33;;;;;;;32.37;15.40;;;4.20;86.70;;;;;;5085319;28;20182;-71
2022/12/24 01:55:10;;;;;;;39.37;16.60;;;4.20;86.20;;;;;;5084318;28;20184;-70
2022/12/24 01:58:00;;;;;;;29.37;16.10;;;4.20;86.70;;;;;;5085218;28;20185;-70
2022/12/24 02:00:33;;;;;;;34.33;18.57;;;4.10;86.50;;;;;;5084799;28;20217;-71
2022/12/24 02:03:07;;;;;;;27.77;14.83;;;4.10;86.70;;;;;;5081986;28;20182;-70
2022/12/24 02:05:53;;;;;;;30.13;15.40;;;4.10;86.90;;;;;;5085533;28;20209;-71
2022/12/24 02:08:57;;;;;;;25.20;15.23;;;4.00;86.90;;;;;;5082923;28;20182;-70
2022/12/24 02:11:24;;;;;;;24.83;13.40;;;4.00;87.10;;;;;;5084299;28;20198;-70
2022/12/24 02:14:00;;;;;;;26.30;13.83;;;4.00;86.90;;;;;;5083251;28;20205;-71
2022/12/24 02:16:30;;;;;;;24.37;12.60;;;4.00;87.10;;;;;;5082351;28;20666;-71
2022/12/24 02:19:24;;;;;;;24.77;13.63;;;3.90;87.20;;;;;;5084546;28;20170;-70
2022/12/24 02:22:20;;;;;;;19.17;11.70;;;3.90;87.00;;;;;;5082991;28;20171;-71
2022/12/24 02:25:07;;;;;;;24.73;10.20;;;3.90;87.30;;;;;;5041068;28;20256;-70
2022/12/24 02:27:57;;;;;;;17.40;10.00;;;3.90;87.30;;;;;;5041840;28;20188;-71
2022/12/24 02:30:39;;;;;;;17.13;11.40;;;3.90;87.10;;;;;;5040836;28;20861;-70
2022/12/24 02:33:13;;;;;;;22.70;10.47;;;3.80;87.20;;;;;;5039637;28;20203;-69
2022/12/24 02:35:59;;;;;;;15.73;9.00;;;3.80;87.30;;;;;;5041879;28;20192;-70
2022/12/24 02:38:46;;;;;;;16.37;9.00;;;3.80;87.60;;;;;;5040540;28;20175;-70
2022/12/24 02:44:32;;;;;;;10.00;5.63;;;3.80;88.10;;;;;;5040808;28;20277;-70
2022/12/24 02:47:06;;;;;;;13.27;6.87;;;3.80;88.70;;;;;;5040493;28;20194;-70
2022/12/24 02:49:46;;;;;;;9.00;6.90;;;3.80;88.30;;;;;;5038944;28;20206;-70
2022/12/24 02:52:37;;;;;;;11.77;6.80;;;3.70;88.20;;;;;;5040622;28;20731;-70
2022/12/24 02:55:13;;;;;;;11.40;6.47;;;3.70;88.10;;;;;;5041441;28;20184;-71
2022/12/24 02:58:03;;;;;;;12.07;6.13;;;3.80;88.70;;;;;;5039982;28;20175;-69
2022/12/24 03:01:17;;;;;;;11.57;6.40;;;3.70;88.40;;;;;;5039742;28;20648;-70
2022/12/24 03:04:02;;;;;;;9.67;5.53;;;3.70;88.00;;;;;;5039810;28;20382;-71
2022/12/24 03:06:59;;;;;;;6.07;4.83;;;3.70;88.00;;;;;;5036784;28;20200;-71
2022/12/24 03:09:39;;;;;;;12.97;6.50;;;3.70;88.00;;;;;;5036122;28;20267;-70
2022/12/24 03:12:26;;;;;;;9.03;5.63;;;3.70;87.70;;;;;;5036525;28;20786;-69
2022/12/24 03:14:59;;;;;;;13.93;8.07;;;3.60;87.70;;;;;;5037645;28;20187;-70
2022/12/24 03:17:35;;;;;;;14.53;7.83;;;3.60;87.70;;;;;;5039425;28;20187;-70
2022/12/24 03:20:06;;;;;;;10.07;7.30;;;3.60;87.70;;;;;;5038943;28;20175;-71
2022/12/24 03:22:37;;;;;;;15.93;9.80;;;3.60;87.40;;;;;;5037169;28;20180;-70
2022/12/24 03:25:09;;;;;;;19.80;9.90;;;3.60;87.60;;;;;;5039276;28;20666;-71
2022/12/24 03:27:43;;;;;;;22.60;12.23;;;3.60;87.50;;;;;;5036489;28;20215;-71
2022/12/24 03:30:17;;;;;;;33.77;14.13;;;3.50;87.20;;;;;;5038152;28;20183;-70
2022/12/24 03:32:48;;;;;;;33.13;15.97;;;3.50;87.30;;;;;;5020008;28;20219;-71
2022/12/24 03:35:21;;;;;;;38.27;16.57;;;3.50;87.30;;;;;;5036869;28;20666;-70
2022/12/24 03:37:52;;;;;;;32.97;17.77;;;3.40;87.30;;;;;;5036831;28;20301;-70
2022/12/24 03:40:22;;;;;;;38.37;17.77;;;3.40;87.10;;;;;;5055325;28;20186;-70
2022/12/24 03:42:52;;;;;;;36.87;16.70;;;3.40;87.10;;;;;;5078436;28;20908;-70
2022/12/24 03:45:23;;;;;;;31.47;18.30;;;3.30;87.20;;;;;;5078778;28;20591;-70
2022/12/24 03:47:53;;;;;;;39.23;18.37;;;3.30;87.20;;;;;;5075357;28;20205;-70
2022/12/24 03:50:26;;;;;;;34.23;19.00;;;3.30;87.10;;;;;;5079963;28;20187;-71
2022/12/24 03:53:00;;;;;;;42.60;20.63;;;3.30;87.20;;;;;;5078831;28;20214;-71
2022/12/24 03:55:30;;;;;;;39.23;19.97;;;3.20;87.20;;;;;;5079972;28;20203;-71
2022/12/24 03:58:08;;;;;;;36.53;19.60;;;3.20;87.10;;;;;;5080462;28;20189;-70
2022/12/24 04:00:38;;;;;;;33.10;17.83;;;3.20;87.30;;;;;;5079120;28;20181;-71
2022/12/24 04:03:11;;;;;;;40.13;19.23;;;3.20;87.40;;;;;;5079199;28;20692;-70
2022/12/24 04:05:41;;;;;;;34.90;17.83;;;3.20;87.30;;;;;;5079909;28;20211;-70
2022/12/24 04:08:18;;;;;;;30.37;18.80;;;3.20;87.60;;;;;;5079690;28;20586;-71
2022/12/24 04:10:48;;;;;;;41.00;18.93;;;3.20;87.40;;;;;;5078405;28;20217;-72
2022/12/24 04:13:18;;;;;;;37.90;17.70;;;3.20;87.70;;;;;;5078990;28;20257;-70
2022/12/24 04:16:05;;;;;;;32.43;15.13;;;3.20;88.00;;;;;;5080041;28;20551;-71
2022/12/24 04:18:37;;;;;;;35.10;17.50;;;3.10;88.00;;;;;;5080555;28;20177;-70
2022/12/24 04:21:08;;;;;;;32.57;17.57;;;3.10;88.60;;;;;;5080232;28;20175;-70
2022/12/24 04:23:40;;;;;;;29.97;17.03;;;3.10;88.90;;;;;;5079313;28;20183;-71
2022/12/24 04:26:15;;;;;;;25.77;15.87;;;3.10;88.90;;;;;;5077568;28;20186;-69
2022/12/24 04:28:46;;;;;;;28.63;16.47;;;3.00;88.80;;;;;;5080428;28;20182;-71
2022/12/24 04:31:17;;;;;;;38.00;18.37;;;3.00;89.40;;;;;;5078401;28;20624;-71
2022/12/24 04:33:48;;;;;;;31.20;16.67;;;3.00;89.60;;;;;;5081288;28;20226;-69
2022/12/24 04:36:26;;;;;;;32.30;17.77;;;2.90;89.40;;;;;;5077635;28;20255;-70
2022/12/24 04:38:56;;;;;;;25.47;14.53;;;2.90;89.60;;;;;;5079661;28;20190;-70
2022/12/24 04:41:29;;;;;;;24.37;14.30;;;2.90;89.10;;;;;;5081321;28;20170;-71
2022/12/24 04:44:02;;;;;;;29.57;13.93;;;2.90;89.50;;;;;;5082452;28;20182;-70
2022/12/24 04:46:34;;;;;;;24.20;12.33;;;2.90;89.50;;;;;;5080827;28;20200;-70
2022/12/24 04:49:04;;;;;;;17.40;11.30;;;2.90;89.20;;;;;;5081488;28;20170;-71
2022/12/24 04:51:38;;;;;;;13.27;8.40;;;3.00;89.50;;;;;;5079194;28;20178;-71
2022/12/24 04:54:08;;;;;;;11.23;8.30;;;3.00;89.80;;;;;;5080376;28;20720;-71
2022/12/24 04:56:38;;;;;;;15.63;7.53;;;3.00;90.10;;;;;;5081847;28;20174;-70
2022/12/24 04:59:08;;;;;;;15.03;6.83;;;3.00;90.30;;;;;;5079712;28;20235;-71
2022/12/24 05:01:39;;;;;;;11.27;6.27;;;3.00;90.50;;;;;;5080174;28;20273;-71
2022/12/24 05:04:10;;;;;;;7.77;5.20;;;3.00;90.60;;;;;;5080981;28;21231;-70
2022/12/24 05:06:40;;;;;;;10.23;5.50;;;3.00;90.60;;;;;;5081718;28;20258;-70
2022/12/24 05:09:13;;;;;;;11.00;6.57;;;3.00;90.70;;;;;;5079956;28;20554;-70
2022/12/24 05:11:43;;;;;;;9.97;5.30;;;3.00;90.80;;;;;;5081785;28;20182;-70
2022/12/24 05:14:16;;;;;;;11.30;5.33;;;3.00;90.30;;;;;;5080498;28;20240;-70
2022/12/24 05:16:46;;;;;;;5.50;4.93;;;3.00;90.10;;;;;;5080712;28;20174;-70
2022/12/24 05:19:17;;;;;;;8.33;4.63;;;3.00;89.90;;;;;;5079686;28;20187;-70
2022/12/24 05:26:20;;;;;;;11.20;5.73;;;3.00;89.70;;;;;;5074985;28;20183;-70
2022/12/24 05:27:27;;;;;;;11.27;7.00;;;3.10;89.60;;;;;;5083605;28;20251;-70
2022/12/24 05:29:53;;;;;;;11.97;6.40;;;3.00;89.40;;;;;;5082396;28;20178;-70
2022/12/24 05:32:18;;;;;;;17.43;9.70;;;3.00;89.00;;;;;;5083427;28;20186;-71
2022/12/24 05:34:45;;;;;;;22.33;10.10;;;3.00;89.20;;;;;;5080309;28;20684;-71
2022/12/24 05:37:12;;;;;;;25.60;12.67;;;3.00;88.90;;;;;;5081975;28;20182;-70
2022/12/24 05:39:39;;;;;;;19.10;11.53;;;3.00;88.90;;;;;;5081774;28;20331;-70
2022/12/24 05:42:08;;;;;;;25.40;14.07;;;3.00;88.80;;;;;;5080773;28;20243;-70
2022/12/24 05:44:35;;;;;;;31.60;14.57;;;3.00;88.90;;;;;;5085711;28;20229;-71
2022/12/24 05:47:01;;;;;;;33.23;16.20;;;3.00;88.80;;;;;;5081093;28;20246;-71
2022/12/24 05:49:29;;;;;;;39.93;16.37;;;3.00;88.70;;;;;;5085986;28;20182;-71
2022/12/24 05:51:55;;;;;;;30.93;15.53;;;3.00;88.50;;;;;;5084635;28;20170;-71
2022/12/24 05:54:21;;;;;;;34.70;16.47;;;3.00;88.60;;;;;;5085543;28;20202;-70
2022/12/24 05:56:50;;;;;;;25.30;15.53;;;3.00;88.70;;;;;;5082167;28;20237;-70
2022/12/24 05:59:20;;;;;;;26.10;15.87;;;3.00;88.60;;;;;;5084742;28;20193;-70
2022/12/24 06:01:52;;;;;;;32.07;16.23;;;3.00;88.90;;;;;;5083630;28;20182;-70
2022/12/24 06:04:25;;;;;;;35.23;17.87;;;3.00;88.90;;;;;;5083730;28;20209;-69
2022/12/24 06:06:59;;;;;;;33.40;15.83;;;3.10;88.80;;;;;;5084174;28;20664;-70
2022/12/24 06:09:29;;;;;;;32.60;17.83;;;3.10;88.80;;;;;;5084463;28;20185;-70
2022/12/24 06:12:02;;;;;;;29.10;16.17;;;3.10;89.50;;;;;;5083768;28;20252;-71
2022/12/24 06:14:35;;;;;;;32.13;18.40;;;3.10;89.30;;;;;;5084954;28;20210;-70
2022/12/24 06:17:06;;;;;;;35.90;16.67;;;3.10;89.20;;;;;;5081155;28;20178;-71
2022/12/24 06:19:39;;;;;;;30.37;16.87;;;3.20;89.30;;;;;;5082392;28;20170;-71
2022/12/24 06:22:10;;;;;;;31.23;18.27;;;3.20;89.30;;;;;;5084788;28;20182;-70
2022/12/24 06:24:40;;;;;;;30.53;15.37;;;3.30;89.50;;;;;;5083157;28;20174;-68
2022/12/24 06:27:11;;;;;;;31.90;16.60;;;3.30;89.70;;;;;;5079665;28;20175;-70
2022/12/24 06:29:41;;;;;;;38.73;18.97;;;3.40;90.00;;;;;;5082284;28;20174;-71
2022/12/24 06:32:11;;;;;;;33.47;17.43;;;3.40;90.20;;;;;;5082509;28;21086;-71
2022/12/24 06:34:41;;;;;;;32.50;17.43;;;3.50;90.10;;;;;;5079921;28;20235;-71
2022/12/24 06:37:17;;;;;;;30.77;17.17;;;3.50;90.30;;;;;;5080491;28;20225;-71
2022/12/24 06:39:47;;;;;;;32.60;17.23;;;3.70;90.90;;;;;;5083245;28;20185;-70
2022/12/24 06:42:18;;;;;;;32.17;16.30;;;3.90;91.30;;;;;;5081368;28;20189;-71
2022/12/24 06:44:48;;;;;;;37.57;19.03;;;4.00;91.20;;;;;;5083371;28;20182;-71
2022/12/24 06:47:21;;;;;;;39.10;17.90;;;4.10;90.90;;;;;;5083336;28;20183;-70
2022/12/24 06:49:52;;;;;;;39.60;18.53;;;4.20;90.50;;;;;;5082108;28;20565;-71
2022/12/24 06:52:22;;;;;;;40.23;17.63;;;4.20;90.10;;;;;;5082529;28;20178;-70
2022/12/24 06:54:55;;;;;;;31.93;17.57;;;4.30;89.80;;;;;;5081943;28;20210;-71
2022/12/24 06:57:25;;;;;;;35.97;17.03;;;4.40;89.70;;;;;;5084889;28;20732;-71
2022/12/24 06:59:55;;;;;;;35.87;17.13;;;4.40;89.70;;;;;;5082470;28;20210;-71
2022/12/24 07:02:26;;;;;;;32.73;18.20;;;4.50;89.90;;;;;;5080457;28;20175;-70
2022/12/24 07:04:56;;;;;;;27.37;17.53;;;4.70;90.50;;;;;;5081170;28;20206;-70
2022/12/24 07:07:30;;;;;;;41.80;21.57;;;5.00;91.30;;;;;;5081626;28;20210;-71
2022/12/24 07:10:00;;;;;;;34.40;20.20;;;5.40;92.10;;;;;;5082371;28;20187;-72
2022/12/24 07:12:30;;;;;;;40.03;20.13;;;5.90;92.70;;;;;;5082344;28;20183;-70
2022/12/24 07:15:00;;;;;;;56.57;23.50;;;6.40;93.00;;;;;;5082067;28;20178;-71
2022/12/24 07:17:36;;;;;;;53.87;23.57;;;7.00;92.40;;;;;;5082174;28;20224;-69
2022/12/24 07:20:08;;;;;;;54.90;24.23;;;7.50;91.60;;;;;;5083083;28;20178;-71
2022/12/24 07:22:38;;;;;;;54.37;26.37;;;8.10;90.60;;;;;;5082989;28;20691;-72
2022/12/24 07:25:09;;;;;;;64.07;29.33;;;8.50;88.60;;;;;;5079628;28;20946;-71
2022/12/24 07:27:39;;;;;;;54.23;28.20;;;8.80;85.20;;;;;;5081938;28;20174;-70
2022/12/24 07:30:13;;;;;;;55.10;29.37;;;8.90;83.50;;;;;;5081557;28;20183;-71
2022/12/24 07:32:43;;;;;;;55.63;27.47;;;8.90;81.90;;;;;;5081590;28;20301;-71
2022/12/24 07:35:14;;;;;;;55.50;28.77;;;8.90;81.60;;;;;;5082133;28;20289;-70
2022/12/24 07:37:47;;;;;;;52.67;29.67;;;8.80;81.00;;;;;;5081312;28;20174;-71
2022/12/24 07:40:17;;;;;;;52.60;25.93;;;8.70;80.70;;;;;;5082346;28;20229;-70
2022/12/24 07:42:48;;;;;;;47.03;26.20;;;8.60;80.70;;;;;;5082819;28;20227;-70
2022/12/24 07:45:18;;;;;;;54.27;26.87;;;8.50;80.70;;;;;;5081465;28;20198;-69
2022/12/24 07:47:51;;;;;;;45.87;25.47;;;8.50;81.10;;;;;;5082645;28;20621;-70
2022/12/24 07:50:24;;;;;;;63.10;26.97;;;8.40;81.30;;;;;;5082795;28;20179;-71
2022/12/24 07:52:54;;;;;;;46.37;25.80;;;8.40;81.60;;;;;;5081449;28;20206;-70
2022/12/24 07:55:24;;;;;;;44.20;23.23;;;8.40;82.00;;;;;;5081139;28;20194;-69
2022/12/24 07:58:00;;;;;;;47.97;23.53;;;8.50;82.20;;;;;;5081872;28;20193;-71
2022/12/24 08:00:37;;;;;;;42.90;22.00;;;8.50;81.90;;;;;;5080739;28;20181;-70
2022/12/24 08:03:25;;;;;;;44.40;23.43;;;8.60;81.80;;;;;;5080998;28;20242;-70
2022/12/24 08:05:59;;;;;;;45.17;23.27;;;8.70;82.10;;;;;;5082264;28;20232;-68
2022/12/24 08:08:29;;;;;;;35.20;20.00;;;8.70;80.70;;;;;;5083034;28;20630;-70
2022/12/24 08:11:08;;;;;;;39.73;20.03;;;8.90;81.90;;;;;;5083717;28;20182;-70
2022/12/24 08:13:45;;;;;;;35.10;18.03;;;9.10;82.30;;;;;;5081825;28;20698;-70
2022/12/24 08:16:15;;;;;;;39.30;19.83;;;9.10;80.20;;;;;;5082472;28;20189;-71
2022/12/24 08:18:46;;;;;;;33.53;16.83;;;9.20;80.50;;;;;;5081664;28;20227;-71
2022/12/24 08:21:16;;;;;;;33.37;18.27;;;9.20;80.70;;;;;;5083356;28;20212;-71
2022/12/24 08:23:48;;;;;;;33.37;18.17;;;9.30;80.10;;;;;;5083665;28;20182;-70
2022/12/24 08:26:19;;;;;;;31.67;17.97;;;9.10;79.90;;;;;;5082896;28;20190;-70
2022/12/24 08:34:45;;;;;;;36.13;19.73;;;8.90;80.60;;;;;;4180256;22;21023;-70
2022/12/24 08:37:11;;;;;;;40.63;20.00;;;8.80;79.80;;;;;;5074795;28;20313;-69
2022/12/24 08:39:40;;;;;;;40.30;19.07;;;8.70;80.00;;;;;;5053102;28;20679;-69
2022/12/24 08:42:07;;;;;;;31.50;17.27;;;8.60;79.80;;;;;;5070927;28;20178;-70
2022/12/24 08:44:34;;;;;;;26.50;16.63;;;8.50;80.10;;;;;;5070515;28;20216;-71
2022/12/24 08:47:01;;;;;;;30.70;15.13;;;8.50;80.50;;;;;;5072540;28;20189;-71
2022/12/24 08:49:27;;;;;;;25.30;15.40;;;8.50;80.50;;;;;;5070029;28;20170;-70
2022/12/24 08:51:54;;;;;;;25.67;15.47;;;8.50;80.80;;;;;;5071564;28;20178;-70
2022/12/24 08:54:22;;;;;;;31.20;16.10;;;8.60;81.00;;;;;;5073984;28;20249;-69
2022/12/24 08:56:49;;;;;;;33.40;16.87;;;8.60;81.00;;;;;;5072533;28;20231;-71
2022/12/24 08:59:16;;;;;;;27.53;16.23;;;8.70;80.80;;;;;;5072481;28;20175;-70
2022/12/24 09:01:43;;;;;;;34.20;16.67;;;8.70;81.10;;;;;;5071541;28;20624;-69
2022/12/24 09:04:10;;;;;;;24.27;15.13;;;8.80;80.60;;;;;;5074231;28;20178;-69
2022/12/24 09:06:37;;;;;;;29.07;15.10;;;8.80;80.60;;;;;;5071395;28;20194;-69
2022/12/24 09:09:05;;;;;;;27.80;15.43;;;8.70;80.30;;;;;;5073119;28;20624;-69
2022/12/24 09:11:34;;;;;;;33.57;15.77;;;8.70;79.70;;;;;;5073071;28;20181;-72
2022/12/24 09:14:01;;;;;;;29.07;15.00;;;8.70;80.50;;;;;;5072442;28;20206;-70
2022/12/24 09:16:28;;;;;;;29.67;14.47;;;8.70;80.50;;;;;;5072151;28;20185;-69
2022/12/24 09:18:57;;;;;;;25.17;13.70;;;8.70;80.50;;;;;;5071763;28;20181;-70
2022/12/24 09:21:24;;;;;;;20.97;12.73;;;8.70;80.10;;;;;;5073544;28;20178;-69
2022/12/24 09:23:51;;;;;;;26.03;13.27;;;8.60;80.50;;;;;;5074136;28;20824;-69
2022/12/24 09:26:24;;;;;;;18.93;12.03;;;8.70;80.60;;;;;;5072399;28;20588;-69
2022/12/24 09:28:52;;;;;;;18.60;12.20;;;8.70;80.70;;;;;;5074771;28;20227;-69
2022/12/24 09:31:18;;;;;;;25.77;13.40;;;8.70;80.70;;;;;;5076065;28;20655;-69
2022/12/24 09:33:49;;;;;;;21.87;12.40;;;8.80;80.90;;;;;;5073158;28;20604;-71
2022/12/24 09:36:19;;;;;;;24.60;12.67;;;8.90;80.90;;;;;;5073845;28;20636;-70
2022/12/24 09:38:53;;;;;;;19.43;12.33;;;9.00;80.60;;;;;;5071921;28;20186;-71
2022/12/24 09:41:29;;;;;;;40.80;19.85;;;9.10;80.60;;;;;;5075917;28;20212;-70
2022/12/24 09:44:18;;;;;;;53.10;25.47;;;9.10;80.60;;;;;;5074708;28;20301;-71
2022/12/24 09:46:52;;;;;;;49.60;26.97;;;9.20;80.30;;;;;;5056542;28;20186;-70
2022/12/24 09:49:38;;;;;;;69.45;34.10;;;9.40;80.40;;;;;;5073381;28;20787;-69
2022/12/24 09:52:15;;;;;;;78.77;35.90;;;9.40;79.60;;;;;;5075656;28;20170;-70
2022/12/24 09:54:53;;;;;;;75.45;37.13;;;9.40;79.90;;;;;;5077845;28;20355;-69
2022/12/24 09:57:35;;;;;;;76.60;36.95;;;9.50;79.20;;;;;;5079944;28;20718;-69
2022/12/24 10:00:04;;;;;;;68.25;36.08;;;9.60;78.90;;;;;;5073815;28;20189;-70
2022/12/24 10:02:34;;;;;;;79.50;36.58;;;9.60;79.20;;;;;;5076302;28;20282;-70
2022/12/24 10:05:10;;;;;;;71.53;33.97;;;9.70;78.90;;;;;;5079088;28;20251;-70
2022/12/24 10:08:02;;;;;;;58.88;34.60;;;9.70;78.70;;;;;;5075587;28;20572;-70
2022/12/24 10:10:55;;;;;;;62.67;34.72;;;9.70;78.10;;;;;;5085379;28;20178;-69
2022/12/24 10:13:41;;;;;;;72.68;33.78;;;9.70;78.10;;;;;;5078526;28;20218;-69
2022/12/24 10:16:33;;;;;;;55.97;32.45;;;9.60;77.50;;;;;;5061615;28;20660;-70
2022/12/24 10:19:25;;;;;;;68.88;32.97;;;9.50;76.90;;;;;;5003047;28;20193;-68
2022/12/24 10:21:58;;;;;;;61.25;30.75;;;9.50;77.20;;;;;;4958933;28;20194;-69
2022/12/24 10:24:55;;;;;;;62.95;31.38;;;9.60;78.90;;;;;;5003852;28;20204;-69
2022/12/24 10:27:32;;;;;;;68.93;33.20;;;9.80;78.00;;;;;;4957080;28;20282;-70
2022/12/24 10:30:13;;;;;;;62.80;33.58;;;9.80;78.10;;;;;;4955721;28;20354;-70
2022/12/24 10:32:47;;;;;;;70.10;32.67;;;9.90;77.70;;;;;;4958286;28;20615;-69
2022/12/24 10:35:17;;;;;;;68.30;32.33;;;10.10;78.10;;;;;;4956595;28;20704;-68
2022/12/24 10:37:47;;;;;;;59.47;32.10;;;10.20;77.90;;;;;;4957978;28;20849;-70
2022/12/24 10:40:26;;;;;;;61.88;31.02;;;10.40;76.90;;;;;;4958179;28;20218;-69
2022/12/24 10:42:53;;;;;;;68.40;30.20;;;10.50;76.50;;;;;;4955189;28;20285;-69
2022/12/24 10:45:26;;;;;;;60.42;28.27;;;10.60;76.80;;;;;;4956935;28;20194;-69
2022/12/24 10:47:57;;;;;;;44.83;26.40;;;10.70;76.30;;;;;;4954597;28;20198;-69
2022/12/24 10:50:38;;;;;;;47.42;25.30;;;10.70;76.00;;;;;;4958185;28;20826;-69
2022/12/24 10:53:37;;;;;;;46.20;24.50;;;10.80;75.60;;;;;;4955908;28;20214;-70
2022/12/24 10:56:08;;;;;;;39.55;23.67;;;10.90;76.20;;;;;;4966333;28;20255;-69
2022/12/24 10:58:35;;;;;;;42.55;24.50;;;10.80;74.70;;;;;;4992665;28;20189;-69
2022/12/24 11:01:03;;;;;;;44.47;22.95;;;10.70;74.30;;;;;;4989703;28;20217;-69
2022/12/24 11:03:33;;;;;;;42.38;23.20;;;10.80;74.80;;;;;;5001877;28;20182;-69
2022/12/24 11:06:07;;;;;;;41.63;23.55;;;10.60;74.70;;;;;;5074269;28;20178;-68
2022/12/24 11:08:44;;;;;;;47.65;24.90;;;10.60;75.00;;;;;;5074218;28;20174;-70
2022/12/24 11:11:16;;;;;;;41.30;22.65;;;10.50;74.40;;;;;;5069607;28;20170;-69
2022/12/24 11:13:48;;;;;;;58.03;25.70;;;10.30;75.00;;;;;;5072678;28;20194;-70
2022/12/24 11:16:36;;;;;;;44.08;22.80;;;10.20;75.10;;;;;;5076990;28;20194;-70
2022/12/24 11:19:16;;;;;;;39.67;20.42;;;10.20;75.90;;;;;;5077311;28;20210;-71
2022/12/24 11:21:46;;;;;;;40.60;21.63;;;10.20;76.40;;;;;;5054957;28;20189;-70
2022/12/24 11:24:27;;;;;;;47.97;22.90;;;10.30;75.80;;;;;;5076721;28;20694;-70
2022/12/24 11:27:40;;;;;;;37.38;21.33;;;10.20;75.60;;;;;;5079437;28;20186;-70
2022/12/24 11:30:17;;;;;;;41.47;22.83;;;10.10;76.00;;;;;;5078787;28;20166;-70
2022/12/24 11:33:29;;;;;;;40.35;21.60;;;10.10;76.60;;;;;;5077734;28;20202;-70
2022/12/24 11:36:05;;;;;;;42.80;21.10;;;10.20;77.30;;;;;;5075380;28;20190;-70
2022/12/24 11:38:37;;;;;;;38.10;22.13;;;10.60;78.00;;;;;;5073983;28;20196;-69
2022/12/24 11:41:18;;;;;;;46.80;23.02;;;10.90;77.50;;;;;;5074946;28;20271;-69
2022/12/24 11:43:50;;;;;;;38.80;23.05;;;11.40;77.20;;;;;;5078101;28;20178;-69
2022/12/24 11:46:51;;;;;;;35.97;21.70;;;12.10;77.60;;;;;;5078224;28;20694;-69
2022/12/24 11:49:30;;;;;;;31.67;17.15;;;12.90;77.50;;;;;;5074801;28;20190;-69
2022/12/24 11:52:11;;;;;;;33.95;17.10;;;13.60;72.40;;;;;;5075116;28;20178;-69
2022/12/24 11:54:58;;;;;;;33.00;19.63;;;14.10;69.80;;;;;;5075430;28;20233;-70
2022/12/24 11:57:47;;;;;;;31.73;19.92;;;14.30;69.40;;;;;;5061176;28;20263;-69
2022/12/24 12:00:13;;;;;;;35.67;20.30;;;14.40;68.30;;;;;;5073996;28;20272;-70
2022/12/24 12:13:10;;;;;;;28.38;17.80;;;13.80;68.90;;;;;;5054414;28;20675;-68
2022/12/24 12:16:00;;;;;;;37.47;18.35;;;14.20;70.10;;;;;;5073759;28;20551;-71
2022/12/24 12:18:36;;;;;;;32.25;18.65;;;14.50;69.20;;;;;;5077286;28;20591;-71
2022/12/24 12:21:25;;;;;;;31.77;19.38;;;14.50;67.60;;;;;;5075864;28;20175;-70
2022/12/24 12:24:20;;;;;;;30.65;18.45;;;14.40;67.60;;;;;;5074454;28;20178;-70
2022/12/24 12:27:01;;;;;;;35.67;23.05;;;14.40;69.00;;;;;;5073151;28;20179;-70
2022/12/24 12:29:38;;;;;;;41.45;23.05;;;14.30;67.20;;;;;;5076610;28;20179;-70
2022/12/24 12:32:10;;;;;;;35.03;20.17;;;14.10;67.80;;;;;;5073713;28;20186;-69
2022/12/24 12:34:47;;;;;;;33.30;21.48;;;14.00;68.30;;;;;;5077963;28;20215;-69
2022/12/24 12:37:26;;;;;;;35.60;21.95;;;14.00;68.40;;;;;;5074035;28;20605;-70
2022/12/24 12:39:54;;;;;;;38.78;22.27;;;13.90;69.00;;;;;;5074549;28;20182;-71
2022/12/24 12:42:34;;;;;;;38.53;23.77;;;13.90;68.40;;;;;;5075279;28;20302;-70
2022/12/24 12:45:25;;;;;;;42.05;23.15;;;13.80;68.60;;;;;;5076876;28;20331;-69
2022/12/24 12:48:00;;;;;;;38.58;24.67;;;13.90;69.20;;;;;;5072542;28;20261;-69
2022/12/24 12:51:08;;;;;;;45.13;25.92;;;13.80;68.70;;;;;;5073859;28;20196;-70
2022/12/24 12:54:12;;;;;;;44.95;26.42;;;13.80;69.10;;;;;;5014094;28;20326;-70
2022/12/24 12:56:45;;;;;;;46.22;26.02;;;13.70;69.40;;;;;;5014949;28;20192;-70
2022/12/24 12:59:24;;;;;;;41.63;24.95;;;13.60;69.40;;;;;;5017837;28;20196;-69
2022/12/24 13:02:21;;;;;;;45.35;23.63;;;13.50;69.30;;;;;;5014533;28;20232;-71
2022/12/24 13:05:09;;;;;;;51.38;22.20;;;13.40;69.70;;;;;;5015642;28;20709;-70
2022/12/24 13:07:57;;;;;;;42.42;23.17;;;13.20;69.40;;;;;;5017269;28;20191;-70
2022/12/24 13:10:54;;;;;;;39.53;22.40;;;13.10;70.00;;;;;;5010665;28;20201;-70
2022/12/24 13:13:38;;;;;;;46.35;25.48;;;12.90;69.60;;;;;;5011223;28;20215;-69
2022/12/24 13:16:39;;;;;;;44.17;24.50;;;12.80;69.90;;;;;;5017412;28;20185;-68
2022/12/24 13:19:41;;;;;;;45.47;25.10;;;12.60;70.20;;;;;;5010855;28;20257;-69
2022/12/24 13:22:16;;;;;;;45.60;24.98;;;12.40;70.70;;;;;;5011423;28;20199;-69
2022/12/24 13:24:53;;;;;;;44.13;25.20;;;12.30;70.90;;;;;;5010980;28;20279;-69
2022/12/24 13:27:32;;;;;;;49.40;28.25;;;12.10;71.20;;;;;;5017030;28;20188;-69
2022/12/24 13:30:40;;;;;;;49.70;27.83;;;12.00;71.70;;;;;;5067976;28;20205;-70
2022/12/24 13:33:11;;;;;;;50.40;27.83;;;11.80;72.70;;;;;;5072557;28;20194;-69
2022/12/24 13:35:58;;;;;;;50.30;29.00;;;11.70;72.70;;;;;;5073271;28;20474;-70
2022/12/24 13:38:28;;;;;;;52.10;27.23;;;11.70;72.70;;;;;;5070478;28;20291;-69
2022/12/24 13:41:15;;;;;;;51.00;27.42;;;11.70;72.90;;;;;;5072810;28;20209;-70
2022/12/24 13:44:20;;;;;;;57.88;31.77;;;11.50;72.90;;;;;;5068298;28;20265;-69